createdAt,value
2023-05-30T00:01:17.225Z,3.17
2023-05-30T00:03:46.124Z,3.33
2023-05-30T00:06:15.818Z,3.03
2023-05-30T00:08:44.509Z,3.20
2023-05-30T00:11:14.864Z,3.60
2023-05-30T00:13:44.703Z,3.27
2023-05-30T00:16:13.191Z,2.70
2023-05-30T00:18:41.555Z,2.40
2023-05-30T00:21:11.321Z,3.53
2023-05-30T00:23:41.108Z,3.10
2023-05-30T00:26:10.737Z,3.10
2023-05-30T00:28:39.108Z,3.40
2023-05-30T00:31:07.825Z,3.17
2023-05-30T00:33:35.772Z,2.70
2023-05-30T00:36:03.910Z,3.10
2023-05-30T00:38:31.815Z,3.30
2023-05-30T00:41:01.128Z,3.47
2023-05-30T00:43:29.018Z,3.07
2023-05-30T00:45:57.353Z,2.97
2023-05-30T00:48:25.603Z,3.20
2023-05-30T00:50:55.388Z,2.77
2023-05-30T00:53:24.425Z,2.80
2023-05-30T00:55:52.580Z,3.57
2023-05-30T00:58:24.905Z,2.70
2023-05-30T01:00:53.709Z,2.73
2023-05-30T01:03:26.000Z,3.20
2023-05-30T01:05:54.822Z,2.77
2023-05-30T01:08:23.019Z,3.10
2023-05-30T01:10:55.354Z,3.00
2023-05-30T01:13:29.552Z,3.07
2023-05-30T01:16:03.060Z,2.80
2023-05-30T01:18:34.960Z,3.10
2023-05-30T01:21:09.138Z,2.57
2023-05-30T01:23:50.467Z,2.97
2023-05-30T01:26:33.958Z,2.80
2023-05-30T01:29:04.673Z,3.13
2023-05-30T01:31:34.628Z,3.50
2023-05-30T01:34:03.204Z,3.00
2023-05-30T01:36:31.949Z,2.50
2023-05-30T01:39:00.768Z,3.00
2023-05-30T01:41:33.790Z,2.83
2023-05-30T01:44:07.853Z,2.70
2023-05-30T01:46:39.742Z,2.50
2023-05-30T01:49:13.704Z,2.80
2023-05-30T01:51:46.901Z,3.10
2023-05-30T01:54:17.846Z,3.00
2023-05-30T01:56:49.458Z,2.33
2023-05-30T01:59:19.774Z,2.73
2023-05-30T02:01:48.384Z,2.63
2023-05-30T02:04:16.417Z,2.87
2023-05-30T02:06:44.495Z,3.37
2023-05-30T02:09:12.490Z,2.97
2023-05-30T02:11:40.592Z,3.07
2023-05-30T02:14:11.616Z,2.80
2023-05-30T02:16:41.148Z,3.07
2023-05-30T02:19:16.264Z,2.90
2023-05-30T02:21:45.089Z,3.10
2023-05-30T02:24:13.570Z,3.03
2023-05-30T02:26:41.557Z,2.47
2023-05-30T02:29:09.513Z,3.33
2023-05-30T02:31:37.490Z,2.90
2023-05-30T02:34:07.799Z,3.00
2023-05-30T02:36:39.658Z,2.33
2023-05-30T02:39:09.887Z,2.80
2023-05-30T02:41:41.372Z,2.50
2023-05-30T02:44:09.771Z,3.03
2023-05-30T02:46:37.948Z,2.43
2023-05-30T02:49:09.762Z,2.83
2023-05-30T02:51:39.650Z,2.90
2023-05-30T02:54:10.777Z,2.33
2023-05-30T02:57:02.923Z,3.67
2023-05-30T02:59:52.145Z,2.77
2023-05-30T03:02:20.151Z,3.10
2023-05-30T03:04:49.765Z,3.33
2023-05-30T03:07:19.667Z,2.53
2023-05-30T03:09:49.114Z,3.20
2023-05-30T03:12:20.039Z,2.80
2023-05-30T03:14:48.032Z,2.83
2023-05-30T03:17:16.224Z,3.13
2023-05-30T03:19:44.120Z,2.80
2023-05-30T03:22:14.774Z,2.97
2023-05-30T03:24:42.653Z,3.10
2023-05-30T03:27:10.939Z,2.60
2023-05-30T03:29:39.963Z,3.57
2023-05-30T03:32:09.031Z,3.60
2023-05-30T03:34:37.942Z,3.17
2023-05-30T03:37:08.944Z,3.30
2023-05-30T03:39:38.494Z,2.70
2023-05-30T03:42:07.292Z,2.80
2023-05-30T03:44:35.226Z,3.47
2023-05-30T03:47:03.447Z,2.83
2023-05-30T03:49:31.306Z,2.97
2023-05-30T03:51:59.173Z,4.23
2023-05-30T03:54:27.023Z,3.13
2023-05-30T03:56:56.249Z,3.43
2023-05-30T03:59:24.496Z,2.80
2023-05-30T04:01:52.376Z,2.93
2023-05-30T04:04:20.364Z,3.80
2023-05-30T04:06:49.223Z,2.70
2023-05-30T04:09:17.174Z,2.90
2023-05-30T04:11:48.055Z,3.40
2023-05-30T04:14:17.296Z,4.13
2023-05-30T04:16:45.287Z,3.40
2023-05-30T04:19:13.520Z,4.50
2023-05-30T04:21:41.422Z,3.33
2023-05-30T04:24:09.487Z,3.40
2023-05-30T04:26:38.978Z,2.87
2023-05-30T04:29:09.283Z,3.73
2023-05-30T04:31:40.203Z,3.43
2023-05-30T04:34:08.135Z,3.53
2023-05-30T04:36:38.054Z,3.50
2023-05-30T04:39:06.498Z,3.10
2023-05-30T04:41:35.212Z,3.07
2023-05-30T04:44:04.693Z,3.00
2023-05-30T04:46:32.625Z,3.57
2023-05-30T04:49:03.096Z,2.90
2023-05-30T04:51:34.134Z,3.67
2023-05-30T04:54:02.521Z,4.53
2023-05-30T04:56:30.499Z,3.67
2023-05-30T04:58:58.700Z,3.13
2023-05-30T05:01:26.748Z,3.13
2023-05-30T05:03:55.021Z,3.27
2023-05-30T05:06:25.478Z,3.23
2023-05-30T05:08:53.345Z,3.23
2023-05-30T05:11:22.592Z,3.00
2023-05-30T05:13:50.550Z,3.23
2023-05-30T05:16:18.554Z,2.83
2023-05-30T05:18:46.545Z,2.80
2023-05-30T05:21:15.274Z,2.77
2023-05-30T05:23:44.627Z,2.60
2023-05-30T05:26:12.574Z,4.10
2023-05-30T05:28:40.515Z,2.87
2023-05-30T05:31:08.449Z,2.90
2023-05-30T05:33:36.462Z,3.30
2023-05-30T05:36:04.578Z,2.97
2023-05-30T05:38:32.520Z,3.30
2023-05-30T05:41:01.980Z,2.93
2023-05-30T05:43:29.861Z,2.70
2023-05-30T05:45:57.815Z,2.53
2023-05-30T05:48:28.770Z,3.83
2023-05-30T05:50:57.034Z,3.00
2023-05-30T05:53:25.093Z,3.50
2023-05-30T05:55:53.567Z,3.07
2023-05-30T05:58:24.481Z,2.80
2023-05-30T06:00:53.345Z,3.63
2023-05-30T06:03:21.432Z,2.77
2023-05-30T06:05:49.537Z,3.60
2023-05-30T06:08:20.294Z,3.17
2023-05-30T06:10:48.240Z,2.97
2023-05-30T06:13:17.125Z,2.80
2023-05-30T06:15:46.447Z,2.63
2023-05-30T06:18:14.357Z,3.50
2023-05-30T06:20:42.380Z,3.20
2023-05-30T06:23:10.622Z,3.03
2023-05-30T06:25:38.980Z,3.07
2023-05-30T06:28:06.897Z,2.93
2023-05-30T06:30:35.040Z,3.40
2023-05-30T06:33:05.067Z,2.80
2023-05-30T06:35:33.037Z,3.27
2023-05-30T06:38:01.636Z,2.90
2023-05-30T06:40:29.556Z,2.70
2023-05-30T06:42:57.686Z,3.37
2023-05-30T06:45:26.004Z,3.17
2023-05-30T06:47:53.898Z,2.63
2023-05-30T06:50:23.223Z,3.17
2023-05-30T06:52:51.122Z,2.87
2023-05-30T06:55:19.099Z,2.93
2023-05-30T06:57:50.430Z,3.20
2023-05-30T07:00:20.129Z,2.80
2023-05-30T07:02:48.012Z,2.80
2023-05-30T07:05:16.059Z,3.30
2023-05-30T07:07:45.805Z,2.93
2023-05-30T07:10:14.384Z,3.63
2023-05-30T07:12:42.260Z,2.90
2023-05-30T07:15:11.370Z,3.17
2023-05-30T07:17:39.371Z,3.00
2023-05-30T07:20:08.760Z,2.50
2023-05-30T07:22:38.838Z,2.87
2023-05-30T07:25:08.876Z,2.63
2023-05-30T07:27:36.805Z,2.63
2023-05-30T07:30:04.961Z,2.60
2023-05-30T07:32:32.941Z,3.07
2023-05-30T07:35:00.863Z,2.90
2023-05-30T07:37:28.740Z,3.10
2023-05-30T07:39:57.099Z,2.93
2023-05-30T07:42:28.730Z,2.60
2023-05-30T07:44:56.637Z,2.90
2023-05-30T07:47:24.569Z,2.67
2023-05-30T07:49:52.579Z,2.83
2023-05-30T07:52:20.481Z,2.63
2023-05-30T07:54:49.310Z,2.70
2023-05-30T07:57:17.227Z,2.87
2023-05-30T07:59:49.573Z,2.70
2023-05-30T08:02:17.610Z,2.80
2023-05-30T08:04:46.085Z,3.10
2023-05-30T08:07:14.046Z,2.73
2023-05-30T08:09:42.072Z,2.70
2023-05-30T08:12:18.252Z,3.10
2023-05-30T08:14:47.673Z,3.00
2023-05-30T08:17:17.408Z,3.13
2023-05-30T08:19:46.296Z,2.73
2023-05-30T08:22:14.221Z,2.90
2023-05-30T08:24:42.661Z,3.13
2023-05-30T08:27:11.762Z,3.00
2023-05-30T08:29:42.228Z,3.20
2023-05-30T08:32:11.495Z,3.10
2023-05-30T08:34:39.819Z,2.80
2023-05-30T08:37:08.633Z,2.50
2023-05-30T08:39:36.517Z,2.93
2023-05-30T08:42:05.615Z,2.30
2023-05-30T08:44:33.625Z,3.03
2023-05-30T08:47:02.033Z,2.87
2023-05-30T08:49:34.904Z,2.17
2023-05-30T08:52:05.075Z,3.00
2023-05-30T08:54:44.277Z,2.57
2023-05-30T08:57:17.029Z,2.70
2023-05-30T08:59:46.146Z,2.93
2023-05-30T09:02:14.794Z,3.37
2023-05-30T09:04:44.831Z,2.90
2023-05-30T09:07:13.807Z,3.10
2023-05-30T09:09:42.568Z,3.17
2023-05-30T09:12:11.091Z,3.10
2023-05-30T09:14:39.203Z,2.80
2023-05-30T09:17:08.177Z,2.20
2023-05-30T09:19:36.315Z,2.63
2023-05-30T09:22:06.423Z,3.27
2023-05-30T09:25:01.646Z,2.80
2023-05-30T09:27:31.260Z,2.27
2023-05-30T09:29:59.151Z,2.90
2023-05-30T09:32:35.420Z,2.47
2023-05-30T09:35:06.829Z,2.90
2023-05-30T09:37:40.667Z,2.63
2023-05-30T09:40:11.176Z,2.40
2023-05-30T09:42:40.731Z,3.10
2023-05-30T09:45:10.183Z,3.07
2023-05-30T09:47:42.140Z,2.60
2023-05-30T09:50:13.016Z,2.77
2023-05-30T09:52:42.948Z,3.17
2023-05-30T09:55:12.369Z,2.60
2023-05-30T09:57:42.444Z,2.90
2023-05-30T10:00:12.318Z,2.40
2023-05-30T10:02:43.031Z,2.60
2023-05-30T10:05:20.911Z,2.20
2023-05-30T10:07:52.256Z,2.40
2023-05-30T10:10:20.903Z,2.80
2023-05-30T10:12:50.341Z,2.83
2023-05-30T10:15:19.527Z,2.60
2023-05-30T10:17:51.836Z,2.73
2023-05-30T10:20:22.470Z,2.53
2023-05-30T10:22:54.109Z,2.57
2023-05-30T10:25:23.456Z,2.73
2023-05-30T10:27:53.925Z,2.10
2023-05-30T10:30:26.864Z,2.23
2023-05-30T10:32:59.451Z,2.33
2023-05-30T10:35:27.706Z,2.40
2023-05-30T10:37:57.356Z,2.03
2023-05-30T10:40:33.515Z,2.60
2023-05-30T10:43:19.457Z,2.10
2023-05-30T10:45:55.233Z,2.17
2023-05-30T10:48:28.382Z,2.60
2023-05-30T10:51:01.219Z,2.43
2023-05-30T10:53:31.233Z,2.20
2023-05-30T10:56:02.396Z,2.43
2023-05-30T10:58:38.639Z,2.20
2023-05-30T11:01:26.734Z,2.57
2023-05-30T11:04:01.413Z,2.00
2023-05-30T11:06:34.832Z,2.30
2023-05-30T11:09:11.384Z,2.50
2023-05-30T11:11:41.575Z,2.37
2023-05-30T11:14:11.801Z,2.30
2023-05-30T11:16:50.915Z,2.17
2023-05-30T11:19:19.909Z,2.27
2023-05-30T11:21:57.996Z,2.30
2023-05-30T11:24:27.786Z,2.13
2023-05-30T11:26:56.996Z,2.07
2023-05-30T11:29:35.226Z,2.13
2023-05-30T11:32:04.280Z,2.13
2023-05-30T11:34:32.145Z,1.83
2023-05-30T11:37:00.356Z,2.30
2023-05-30T11:39:29.533Z,2.10
2023-05-30T11:41:57.397Z,2.87
2023-05-30T11:44:25.289Z,2.20
2023-05-30T11:47:02.880Z,1.90
2023-05-30T11:49:31.434Z,1.70
2023-05-30T11:51:59.731Z,2.30
2023-05-30T11:54:29.316Z,1.87
2023-05-30T11:56:58.190Z,2.10
2023-05-30T11:59:27.073Z,2.00
2023-05-30T12:01:56.228Z,1.80
2023-05-30T12:04:25.709Z,2.33
2023-05-30T12:06:53.819Z,1.90
2023-05-30T12:09:22.541Z,2.10
2023-05-30T12:11:55.734Z,2.30
2023-05-30T12:14:29.974Z,1.90
2023-05-30T12:16:58.398Z,2.00
2023-05-30T12:19:30.972Z,2.07
2023-05-30T12:21:59.149Z,2.10
2023-05-30T12:24:27.516Z,2.00
2023-05-30T12:26:57.843Z,2.30
2023-05-30T12:29:27.144Z,2.30
2023-05-30T12:31:55.518Z,2.10
2023-05-30T12:34:23.452Z,2.27
2023-05-30T12:36:51.871Z,2.10
2023-05-30T12:39:19.885Z,2.00
2023-05-30T12:41:47.851Z,2.10
2023-05-30T12:44:21.512Z,2.00
2023-05-30T12:46:49.490Z,2.00
2023-05-30T12:49:17.421Z,2.20
2023-05-30T12:51:45.280Z,1.90
2023-05-30T12:54:13.883Z,1.80
2023-05-30T12:56:41.761Z,2.30
2023-05-30T12:59:09.614Z,1.87
2023-05-30T13:01:38.896Z,1.80
2023-05-30T13:04:06.947Z,1.90
2023-05-30T13:06:34.981Z,1.80
2023-05-30T13:09:05.110Z,2.07
2023-05-30T13:11:33.360Z,2.17
2023-05-30T13:14:01.439Z,2.17
2023-05-30T13:16:29.495Z,2.00
2023-05-30T13:18:58.713Z,2.37
2023-05-30T13:21:26.560Z,1.70
2023-05-30T13:23:54.575Z,2.07
2023-05-30T13:26:22.618Z,2.10
2023-05-30T13:28:50.505Z,2.20
2023-05-30T13:31:18.497Z,2.40
2023-05-30T13:33:46.946Z,2.53
2023-05-30T13:36:17.845Z,2.47
2023-05-30T13:38:47.405Z,2.00
2023-05-30T13:41:15.357Z,2.07
2023-05-30T13:43:43.318Z,1.97
2023-05-30T13:46:11.382Z,2.07
2023-05-30T13:48:39.274Z,2.10
2023-05-30T13:51:07.457Z,2.10
2023-05-30T13:56:08.344Z,2.10
2023-05-30T13:58:36.448Z,2.27
2023-05-30T14:01:05.229Z,2.03
2023-05-30T14:03:33.381Z,2.10
2023-05-30T14:06:02.083Z,2.50
2023-05-30T14:08:30.275Z,2.30
2023-05-30T14:10:59.932Z,2.50
2023-05-30T14:13:27.929Z,2.37
2023-05-30T14:15:55.893Z,1.90
2023-05-30T14:18:24.245Z,2.40
2023-05-30T14:20:52.561Z,2.53
2023-05-30T14:23:20.676Z,2.50
2023-05-30T14:25:48.617Z,2.20
2023-05-30T14:28:18.190Z,2.17
2023-05-30T14:30:46.574Z,2.60
2023-05-30T14:33:14.503Z,2.30
2023-05-30T14:35:42.513Z,2.40
2023-05-30T14:38:11.292Z,1.97
2023-05-30T14:40:39.346Z,2.17
2023-05-30T14:43:07.998Z,2.43
2023-05-30T14:45:37.471Z,1.97
2023-05-30T14:48:06.577Z,2.43
2023-05-30T14:50:34.567Z,1.80
2023-05-30T14:53:02.453Z,2.20
2023-05-30T14:55:30.709Z,2.17
2023-05-30T14:57:59.287Z,2.10
2023-05-30T15:00:27.321Z,2.20
2023-05-30T15:02:56.942Z,2.20
2023-05-30T15:05:25.028Z,2.40
2023-05-30T15:07:52.911Z,2.07
2023-05-30T15:10:21.216Z,2.43
2023-05-30T15:12:49.131Z,2.40
2023-05-30T15:15:17.876Z,2.27
2023-05-30T15:17:45.758Z,2.20
2023-05-30T15:20:15.622Z,2.13
2023-05-30T15:22:43.569Z,2.23
2023-05-30T15:25:11.572Z,2.20
2023-05-30T15:27:39.449Z,1.83
2023-05-30T15:30:09.653Z,2.53
2023-05-30T15:32:37.757Z,1.70
2023-05-30T15:35:06.399Z,2.47
2023-05-30T15:37:35.854Z,2.03
2023-05-30T15:40:06.025Z,2.07
2023-05-30T15:42:34.610Z,2.00
2023-05-30T15:45:02.535Z,2.23
2023-05-30T15:47:30.461Z,2.10
2023-05-30T15:49:58.466Z,2.20
2023-05-30T15:52:26.360Z,1.93
2023-05-30T15:54:56.117Z,2.37
2023-05-30T15:57:24.015Z,2.50
2023-05-30T15:59:52.268Z,2.07
2023-05-30T16:02:20.824Z,1.97
2023-05-30T16:04:48.783Z,2.10
2023-05-30T16:07:17.011Z,2.33
2023-05-30T16:09:44.861Z,1.80
2023-05-30T16:12:14.488Z,2.33
2023-05-30T16:14:42.373Z,2.30
2023-05-30T16:17:10.306Z,2.20
2023-05-30T16:19:38.172Z,2.47
2023-05-30T16:22:06.997Z,2.03
2023-05-30T16:24:34.866Z,2.10
2023-05-30T16:27:04.689Z,2.00
2023-05-30T16:29:34.019Z,2.50
2023-05-30T16:32:02.170Z,1.93
2023-05-30T16:34:30.408Z,2.10
2023-05-30T16:36:58.276Z,2.37
2023-05-30T16:39:26.685Z,1.97
2023-05-30T16:41:54.887Z,1.90
2023-05-30T16:44:22.872Z,2.50
2023-05-30T16:46:52.256Z,2.17
2023-05-30T16:49:20.248Z,2.10
2023-05-30T16:51:48.453Z,2.17
2023-05-30T16:54:16.332Z,2.30
2023-05-30T16:56:44.184Z,2.60
2023-05-30T16:59:12.251Z,2.30
2023-05-30T17:01:40.196Z,2.13
2023-05-30T17:04:09.956Z,2.07
2023-05-30T17:06:39.258Z,1.83
2023-05-30T17:09:09.060Z,2.00
2023-05-30T17:11:37.353Z,2.20
2023-05-30T17:14:05.504Z,1.80
2023-05-30T17:16:37.409Z,2.23
2023-05-30T17:19:11.470Z,2.50
2023-05-30T17:21:43.652Z,2.17
2023-05-30T17:24:11.575Z,2.33
2023-05-30T17:26:39.612Z,2.60
2023-05-30T17:29:08.453Z,2.00
2023-05-30T17:31:36.414Z,2.33
2023-05-30T17:34:04.574Z,2.10
2023-05-30T17:36:32.446Z,2.20
2023-05-30T17:39:01.857Z,1.87
2023-05-30T17:41:29.901Z,2.23
2023-05-30T17:43:59.101Z,2.17
2023-05-30T17:46:27.334Z,2.40
2023-05-30T17:48:55.341Z,1.83
2023-05-30T17:51:23.300Z,1.90
2023-05-30T17:53:55.917Z,2.20
2023-05-30T17:56:25.762Z,2.40
2023-05-30T17:58:53.669Z,2.23
2023-05-30T18:01:21.912Z,2.93
2023-05-30T18:03:49.956Z,2.47
2023-05-30T18:08:52.188Z,2.43
2023-05-30T18:11:20.246Z,1.80
2023-05-30T18:13:49.621Z,2.30
2023-05-30T18:16:17.841Z,2.43
2023-05-30T18:18:46.011Z,1.90
2023-05-30T18:21:14.352Z,1.93
2023-05-30T18:23:42.793Z,2.27
2023-05-30T18:26:10.809Z,2.53
2023-05-30T18:28:38.664Z,2.60
2023-05-30T18:31:08.232Z,2.67
2023-05-30T18:33:36.228Z,2.30
2023-05-30T18:36:12.006Z,2.00
2023-05-30T18:38:41.930Z,2.73
2023-05-30T18:41:13.796Z,2.27
2023-05-30T18:43:43.410Z,2.73
2023-05-30T18:46:12.763Z,1.80
2023-05-30T18:48:46.058Z,2.17
2023-05-30T18:51:15.237Z,2.30
2023-05-30T18:53:43.159Z,2.10
2023-05-30T18:56:12.191Z,1.90
2023-05-30T18:58:40.406Z,1.80
2023-05-30T19:01:08.394Z,2.13
2023-05-30T19:03:40.399Z,2.00
2023-05-30T19:06:08.863Z,1.80
2023-05-30T19:08:36.893Z,1.97
2023-05-30T19:11:05.351Z,2.33
2023-05-30T19:13:33.245Z,2.27
2023-05-30T19:16:02.044Z,2.10
2023-05-30T19:18:30.327Z,2.10
2023-05-30T19:21:00.832Z,2.30
2023-05-30T19:23:28.830Z,2.57
2023-05-30T19:25:58.629Z,2.30
2023-05-30T19:28:27.392Z,2.10
2023-05-30T19:30:55.416Z,2.00
2023-05-30T19:33:23.766Z,2.30
2023-05-30T19:35:51.678Z,2.70
2023-05-30T19:38:20.935Z,1.97
2023-05-30T19:40:48.891Z,2.03
2023-05-30T19:43:16.750Z,2.03
2023-05-30T19:45:44.706Z,2.30
2023-05-30T19:48:12.682Z,2.10
2023-05-30T19:50:40.565Z,2.40
2023-05-30T19:53:08.695Z,2.13
2023-05-30T19:55:38.116Z,2.00
2023-05-30T19:58:06.151Z,2.10
2023-05-30T20:00:38.985Z,2.10
2023-05-30T20:03:08.018Z,2.37
2023-05-30T20:05:38.460Z,2.23
2023-05-30T20:08:07.158Z,2.13
2023-05-30T20:10:37.609Z,2.47
2023-05-30T20:13:05.559Z,2.20
2023-05-30T20:15:33.520Z,2.37
2023-05-30T20:18:02.611Z,2.30
2023-05-30T20:20:31.108Z,2.10
2023-05-30T20:23:03.367Z,2.37
2023-05-30T20:25:31.481Z,2.50
2023-05-30T20:28:02.776Z,2.20
2023-05-30T20:30:31.497Z,2.40
2023-05-30T20:33:01.149Z,2.07
2023-05-30T20:35:29.719Z,2.40
2023-05-30T20:37:57.580Z,2.53
2023-05-30T20:40:25.566Z,2.60
2023-05-30T20:42:53.626Z,2.30
2023-05-30T20:45:23.002Z,2.47
2023-05-30T20:47:51.050Z,2.80
2023-05-30T20:50:18.953Z,2.70
2023-05-30T20:52:46.909Z,2.30
2023-05-30T20:55:14.842Z,2.47
2023-05-30T20:57:42.678Z,2.80
2023-05-30T21:00:12.143Z,2.37
2023-05-30T21:02:42.658Z,2.37
2023-05-30T21:05:11.058Z,3.03
2023-05-30T21:07:39.905Z,2.00
2023-05-30T21:10:08.861Z,2.80
2023-05-30T21:12:36.908Z,2.50
2023-05-30T21:15:05.592Z,2.40
2023-05-30T21:17:33.467Z,2.30
2023-05-30T21:20:02.942Z,2.57
2023-05-30T21:22:31.107Z,2.40
2023-05-30T21:24:59.196Z,3.23
2023-05-30T21:27:27.054Z,2.33
2023-05-30T21:29:54.969Z,3.00
2023-05-30T21:32:23.021Z,2.47
2023-05-30T21:34:50.973Z,2.70
2023-05-30T21:37:23.179Z,2.53
2023-05-30T21:39:51.010Z,2.80
2023-05-30T21:42:19.358Z,2.30
2023-05-30T21:44:47.692Z,2.40
2023-05-30T21:47:15.712Z,2.20
2023-05-30T21:49:43.702Z,2.37
2023-05-30T21:52:11.637Z,2.43
2023-05-30T21:54:43.546Z,2.10
2023-05-30T21:57:12.099Z,2.50
2023-05-30T21:59:40.724Z,2.20
2023-05-30T22:02:10.462Z,2.80
2023-05-30T22:04:38.360Z,2.53
2023-05-30T22:07:08.629Z,2.03
2023-05-30T22:09:36.973Z,2.60
2023-05-30T22:12:07.979Z,2.30
2023-05-30T22:14:36.386Z,2.60
2023-05-30T22:17:04.341Z,3.10
2023-05-30T22:19:32.166Z,2.50
2023-05-30T22:22:04.303Z,2.37
2023-05-30T22:24:33.725Z,2.20
2023-05-30T22:27:01.941Z,2.07
2023-05-30T22:29:31.303Z,2.53
2023-05-30T22:31:59.321Z,2.50
2023-05-30T22:34:27.258Z,2.70
2023-05-30T22:36:55.116Z,2.70
2023-05-30T22:39:23.021Z,2.63
2023-05-30T22:41:50.862Z,2.37
2023-05-30T22:44:18.750Z,3.47
2023-05-30T22:46:47.966Z,2.70
2023-05-30T22:49:15.855Z,2.67
2023-05-30T22:51:43.703Z,2.20
2023-05-30T22:54:12.400Z,2.27
2023-05-30T22:56:40.351Z,2.70
2023-05-30T22:59:08.218Z,2.80
2023-05-30T23:01:36.095Z,2.37
2023-05-30T23:04:05.512Z,2.27
2023-05-30T23:06:33.456Z,2.43
2023-05-30T23:09:01.295Z,3.17
2023-05-30T23:11:29.397Z,2.50
2023-05-30T23:13:57.304Z,2.27
2023-05-30T23:16:25.405Z,2.33
2023-05-30T23:18:53.490Z,2.53
2023-05-30T23:21:23.334Z,2.70
2023-05-30T23:23:51.230Z,2.43
2023-05-30T23:26:19.159Z,2.80
2023-05-30T23:28:47.003Z,2.43
2023-05-30T23:31:15.106Z,2.27
2023-05-30T23:33:42.979Z,2.97
2023-05-30T23:36:11.301Z,2.97
2023-05-30T23:38:40.896Z,2.50
2023-05-30T23:41:08.875Z,2.90
2023-05-30T23:43:36.752Z,3.03
2023-05-30T23:46:04.655Z,2.83
2023-05-30T23:48:32.512Z,3.30
2023-05-30T23:51:03.316Z,3.10
2023-05-30T23:53:31.404Z,2.50
2023-05-30T23:56:00.632Z,2.73
2023-05-30T23:58:28.501Z,2.47
